Time;durP1;ratioP1;P1;durP2;ratioP2;P2;SDS_P1;SDS_P2;PMS_P1;PMS_P2;Temp;Humidity;BMP_temperature;BMP_pressure;BME280_temperature;BME280_humidity;BME280_pressure;Samples;Min_cycle;Max_cycle;Signal;HPM_P1;HPM_P2
2021/01/11 00:01:25;;;;;;;;;;;4.60;99.90;;;;;;5019225;28;19926;-78
2021/01/11 00:09:45;;;;;;;;;;;4.60;99.90;;;;;;5001778;28;19910;-77
2021/01/11 00:12:11;;;;;;;;;;;4.60;99.90;;;;;;4985134;28;19938;-76
2021/01/11 00:14:38;;;;;;;;;;;4.60;99.90;;;;;;4977197;28;19926;-76
2021/01/11 00:17:05;;;;;;;;;;;4.70;99.90;;;;;;4977065;28;19977;-76
2021/01/11 00:19:32;;;;;;;;;;;4.60;99.90;;;;;;4977645;28;19936;-77
2021/01/11 00:22:03;;;;;;;;;;;4.60;99.90;;;;;;4982702;28;19937;-78
2021/01/11 00:24:29;;;;;;;;;;;7.70;99.90;;;;;;4988134;28;19980;-77
2021/01/11 00:26:56;;;;;;;;;;;4.60;99.90;;;;;;4976922;28;19937;-76
2021/01/11 00:29:22;;;;;;;;;;;4.60;99.90;;;;;;4977233;28;19926;-77
2021/01/11 00:31:49;;;;;;;;;;;4.60;99.90;;;;;;4981244;28;19952;-76
2021/01/11 00:34:16;;;;;;;;;;;4.60;99.90;;;;;;4994228;28;19926;-77
2021/01/11 00:36:45;;;;;;;;;;;4.60;99.90;;;;;;4991676;28;19926;-77
2021/01/11 00:39:13;;;;;;;;;;;4.60;99.90;;;;;;4994986;28;19926;-77
2021/01/11 00:41:40;;;;;;;;;;;4.70;99.90;;;;;;4983882;28;19930;-77
2021/01/11 00:44:06;;;;;;;;;;;4.60;99.90;;;;;;4977431;28;20251;-77
2021/01/11 00:46:32;;;;;;;;;;;4.70;99.90;;;;;;4977474;28;19937;-77
2021/01/11 00:48:58;;;;;;;;;;;4.60;99.90;;;;;;4992416;28;19926;-77
2021/01/11 00:51:26;;;;;;;;;;;4.60;99.90;;;;;;4996165;28;20263;-77
2021/01/11 00:53:52;;;;;;;;;;;4.60;99.90;;;;;;4996485;28;20253;-77
2021/01/11 00:56:19;;;;;;;;;;;4.60;99.90;;;;;;4996147;28;20354;-77
2021/01/11 00:58:45;;;;;;;;;;;4.60;99.90;;;;;;4995972;28;20342;-76
2021/01/11 01:01:12;;;;;;;;;;;4.60;99.90;;;;;;4987279;28;19933;-76
2021/01/11 01:03:39;;;;;;;;;;;4.60;99.90;;;;;;4985734;28;19937;-76
2021/01/11 01:06:05;;;;;;;;;;;4.60;99.90;;;;;;4976852;28;19926;-76
2021/01/11 01:08:33;;;;;;;;;;;4.60;99.90;;;;;;4975692;28;19926;-76
2021/01/11 01:11:08;;;;;;;;;;;4.60;99.90;;;;;;4976280;28;19930;-76
2021/01/11 01:13:35;;;;;;;;;;;4.60;99.90;;;;;;4984068;28;19980;-77
2021/01/11 01:16:02;;;;;;;;;;;4.60;99.90;;;;;;4989071;28;19925;-77
2021/01/11 01:18:32;;;;;;;;;;;4.60;99.90;;;;;;4995194;28;20252;-77
2021/01/11 01:20:58;;;;;;;;;;;4.60;99.90;;;;;;4996289;28;19925;-77
2021/01/11 01:23:25;;;;;;;;;;;4.60;99.90;;;;;;4996160;28;20061;-77
2021/01/11 01:25:56;;;;;;;;;;;4.60;99.90;;;;;;4984583;28;19959;-76
2021/01/11 01:28:22;;;;;;;;;;;4.60;99.90;;;;;;5089628;22;19929;-77
2021/01/11 01:30:49;;;;;;;;;;;4.60;99.90;;;;;;5004251;28;19980;-76
2021/01/11 01:33:16;;;;;;;;;;;4.60;99.90;;;;;;4996809;28;19926;-77
2021/01/11 01:35:49;;;;;;;;;;;4.60;99.90;;;;;;4998132;28;19926;-77
2021/01/11 01:38:16;;;;;;;;;;;4.60;99.90;;;;;;5009064;28;19929;-77
2021/01/11 01:40:45;;;;;;;;;;;4.60;99.90;;;;;;4996750;28;19926;-77
2021/01/11 01:43:13;;;;;;;;;;;4.60;99.90;;;;;;5002557;28;19925;-76
2021/01/11 01:45:40;;;;;;;;;;;4.70;99.90;;;;;;5009421;28;20036;-76
2021/01/11 01:48:11;;;;;;;;;;;4.70;99.90;;;;;;4995245;28;19936;-76
2021/01/11 01:50:37;;;;;;;;;;;4.70;99.90;;;;;;4994930;28;19937;-76
2021/01/11 01:53:04;;;;;;;;;;;4.60;99.90;;;;;;4995269;28;19937;-76
2021/01/11 01:55:31;;;;;;;;;;;4.70;99.90;;;;;;5009923;28;19984;-76
2021/01/11 01:58:02;;;;;;;;;;;4.60;99.90;;;;;;5004576;28;19926;-76
2021/01/11 02:00:31;;;;;;;;;;;4.70;99.90;;;;;;4997857;28;19925;-75
2021/01/11 02:02:58;;;;;;;;;;;4.70;99.90;;;;;;4994790;28;20236;-76
2021/01/11 02:05:29;;;;;;;;;;;4.70;99.90;;;;;;4995064;28;20013;-76
2021/01/11 02:07:58;;;;;;;;;;;4.70;99.90;;;;;;4994922;28;19930;-76
2021/01/11 02:10:27;;;;;;;;;;;4.70;99.90;;;;;;5002128;28;19925;-76
2021/01/11 02:12:58;;;;;;;;;;;4.70;99.90;;;;;;5011314;28;20023;-76
2021/01/11 02:15:28;;;;;;;;;;;4.70;99.90;;;;;;5003115;28;19926;-76
2021/01/11 02:17:57;;;;;;;;;;;4.70;99.90;;;;;;4995702;28;19926;-76
2021/01/11 02:20:54;;;;;;;;;;;4.70;99.90;;;;;;4994924;28;19930;-76
2021/01/11 02:23:44;;;;;;;;;;;4.70;99.90;;;;;;4935321;29;19926;-76
2021/01/11 02:26:14;;;;;;;;;;;4.70;99.90;;;;;;4927277;29;19911;-76
2021/01/11 02:28:56;;;;;;;;;;;4.70;99.90;;;;;;4935368;29;20372;-76
2021/01/11 02:31:23;;;;;;;;;;;4.70;99.90;;;;;;4938232;29;19927;-76
2021/01/11 02:33:50;;;;;;;;;;;4.70;99.90;;;;;;4938644;29;19937;-77
2021/01/11 02:36:16;;;;;;;;;;;4.70;99.90;;;;;;4938499;29;19930;-77
2021/01/11 02:38:42;;;;;;;;;;;4.70;99.90;;;;;;4938673;29;19926;-76
2021/01/11 02:41:09;;;;;;;;;;;4.70;99.90;;;;;;4938323;29;19931;-76
2021/01/11 02:43:35;;;;;;;;;;;4.70;99.90;;;;;;4938582;29;20042;-76
2021/01/11 02:46:02;;;;;;;;;;;4.70;99.90;;;;;;4938447;29;19926;-77
2021/01/11 02:48:31;;;;;;;;;;;4.70;99.90;;;;;;4938700;29;19927;-76
2021/01/11 02:51:04;;;;;;;;;;;4.70;99.90;;;;;;4938063;29;20307;-77
2021/01/11 02:53:33;;;;;;;;;;;4.70;99.90;;;;;;4937228;29;19966;-77
2021/01/11 02:56:00;;;;;;;;;;;4.70;99.90;;;;;;4938132;29;20364;-76
2021/01/11 02:58:46;;;;;;;;;;;4.70;99.90;;;;;;4995467;28;19936;-76
2021/01/11 03:01:14;;;;;;;;;;;4.70;99.90;;;;;;5009758;28;19967;-76
2021/01/11 03:03:43;;;;;;;;;;;4.70;99.90;;;;;;5010847;28;19925;-76
2021/01/11 03:06:11;;;;;;;;;;;4.70;99.90;;;;;;5017529;28;19930;-76
2021/01/11 03:08:38;;;;;;;;;;;4.70;99.90;;;;;;5015756;28;19930;-76
2021/01/11 03:11:05;;;;;;;;;;;4.70;99.90;;;;;;5012081;28;19948;-76
2021/01/11 03:13:32;;;;;;;;;;;4.70;99.90;;;;;;5006667;28;19929;-76
2021/01/11 03:15:58;;;;;;;;;;;4.70;99.90;;;;;;5008787;28;19925;-76
2021/01/11 03:18:24;;;;;;;;;;;4.70;99.90;;;;;;5013123;28;19979;-76
2021/01/11 03:20:52;;;;;;;;;;;4.70;99.90;;;;;;5003213;28;19947;-76
2021/01/11 03:23:18;;;;;;;;;;;4.70;99.90;;;;;;5003320;28;19936;-76
2021/01/11 03:25:45;;;;;;;;;;;4.70;99.90;;;;;;5003924;28;19926;-76
2021/01/11 03:28:11;;;;;;;;;;;4.70;99.90;;;;;;5013647;28;19926;-76
2021/01/11 03:30:39;;;;;;;;;;;4.70;99.90;;;;;;5009259;28;20031;-77
2021/01/11 03:33:06;;;;;;;;;;;4.70;99.90;;;;;;5014068;28;19987;-77
2021/01/11 03:35:33;;;;;;;;;;;4.70;99.90;;;;;;5005068;28;19937;-76
2021/01/11 03:38:01;;;;;;;;;;;4.70;99.90;;;;;;5009683;28;19926;-76
2021/01/11 03:40:27;;;;;;;;;;;4.70;99.90;;;;;;4998155;28;20426;-77
2021/01/11 03:42:54;;;;;;;;;;;4.70;99.90;;;;;;4997527;28;20266;-77
2021/01/11 03:45:22;;;;;;;;;;;4.80;99.90;;;;;;5003431;28;19933;-76
2021/01/11 03:47:49;;;;;;;;;;;4.80;99.90;;;;;;5010453;28;19987;-76
2021/01/11 03:50:15;;;;;;;;;;;4.70;99.90;;;;;;5002833;28;19936;-76
2021/01/11 03:52:41;;;;;;;;;;;4.80;99.90;;;;;;4997599;28;19926;-76
2021/01/11 03:55:09;;;;;;;;;;;4.80;99.90;;;;;;4997598;28;20278;-76
2021/01/11 03:57:35;;;;;;;;;;;4.80;99.90;;;;;;5007557;28;20020;-77
2021/01/11 04:00:02;;;;;;;;;;;4.80;99.90;;;;;;5013966;28;19930;-77
2021/01/11 04:02:28;;;;;;;;;;;4.80;99.90;;;;;;5016998;28;19940;-77
2021/01/11 04:04:54;;;;;;;;;;;4.80;99.90;;;;;;5016990;28;19983;-77
2021/01/11 04:07:21;;;;;;;;;;;4.80;99.90;;;;;;5016655;28;20342;-77
2021/01/11 04:09:47;;;;;;;;;;;4.90;99.90;;;;;;5016591;28;19926;-76
2021/01/11 04:12:14;;;;;;;;;;;4.80;99.90;;;;;;5016638;28;19926;-76
2021/01/11 04:14:40;;;;;;;;;;;4.80;99.90;;;;;;5016670;28;19936;-76
2021/01/11 04:17:07;;;;;;;;;;;4.80;99.90;;;;;;5016642;28;19926;-77
2021/01/11 04:19:33;;;;;;;;;;;4.80;99.90;;;;;;5016711;28;19948;-77
2021/01/11 04:22:01;;;;;;;;;;;4.80;99.90;;;;;;5016652;28;19930;-76
2021/01/11 04:24:27;;;;;;;;;;;4.80;99.90;;;;;;5016228;28;19925;-77
2021/01/11 04:26:53;;;;;;;;;;;4.90;99.90;;;;;;5016318;28;19991;-76
2021/01/11 04:29:21;;;;;;;;;;;4.80;99.90;;;;;;5016150;28;19926;-76
2021/01/11 04:31:47;;;;;;;;;;;4.80;99.90;;;;;;5015950;28;20346;-76
2021/01/11 04:34:14;;;;;;;;;;;4.90;99.90;;;;;;5015939;28;19934;-76
2021/01/11 04:36:41;;;;;;;;;;;4.80;99.90;;;;;;5016303;28;19925;-77
2021/01/11 04:39:08;;;;;;;;;;;4.80;99.90;;;;;;5016002;28;19929;-76
2021/01/11 04:41:35;;;;;;;;;;;4.80;99.90;;;;;;5016080;28;19933;-77
2021/01/11 04:44:01;;;;;;;;;;;4.90;99.90;;;;;;5016343;28;20000;-77
2021/01/11 04:46:28;;;;;;;;;;;4.90;99.90;;;;;;5016087;28;19925;-77
2021/01/11 04:48:55;;;;;;;;;;;4.80;99.90;;;;;;5015883;28;19926;-76
2021/01/11 04:51:21;;;;;;;;;;;4.90;99.90;;;;;;5015857;28;19925;-76
2021/01/11 04:53:47;;;;;;;;;;;4.90;99.90;;;;;;5015883;28;20346;-77
2021/01/11 04:56:14;;;;;;;;;;;4.90;99.90;;;;;;5016056;28;19935;-77
2021/01/11 04:58:50;;;;;;;;;;;4.90;99.90;;;;;;5016193;28;19932;-77
2021/01/11 05:01:17;;;;;;;;;;;4.90;99.90;;;;;;5015772;28;20251;-77
2021/01/11 05:03:44;;;;;;;;;;;4.90;99.90;;;;;;5015792;28;19932;-77
2021/01/11 05:06:10;;;;;;;;;;;4.90;99.90;;;;;;5016175;28;19933;-77
2021/01/11 05:08:36;;;;;;;;;;;4.90;99.90;;;;;;5015976;28;19929;-77
2021/01/11 05:11:03;;;;;;;;;;;4.90;99.90;;;;;;5015930;28;19936;-77
2021/01/11 05:13:29;;;;;;;;;;;4.90;99.90;;;;;;5015705;28;19936;-77
2021/01/11 05:15:55;;;;;;;;;;;4.90;99.90;;;;;;5015916;28;19934;-77
2021/01/11 05:18:22;;;;;;;;;;;4.90;99.90;;;;;;5015728;28;19925;-77
2021/01/11 05:20:49;;;;;;;;;;;4.90;99.90;;;;;;5015526;28;19929;-77
2021/01/11 05:23:16;;;;;;;;;;;4.90;99.90;;;;;;5015718;28;19926;-77
2021/01/11 05:25:42;;;;;;;;;;;4.90;99.90;;;;;;5003249;28;19936;-77
2021/01/11 05:28:09;;;;;;;;;;;4.90;99.90;;;;;;4995759;28;19980;-77
2021/01/11 05:30:36;;;;;;;;;;;4.90;99.90;;;;;;4995586;28;19933;-77
2021/01/11 05:33:02;;;;;;;;;;;4.90;99.90;;;;;;4995656;28;19929;-77
2021/01/11 05:35:29;;;;;;;;;;;4.90;99.90;;;;;;4995959;28;19925;-77
2021/01/11 05:37:56;;;;;;;;;;;4.90;99.90;;;;;;4995967;28;19932;-77
2021/01/11 05:40:23;;;;;;;;;;;4.90;99.90;;;;;;4996151;28;20266;-77
2021/01/11 05:42:50;;;;;;;;;;;4.90;99.90;;;;;;4995835;28;20381;-77
2021/01/11 05:45:16;;;;;;;;;;;4.90;99.90;;;;;;4996139;28;19926;-77
2021/01/11 05:47:55;;;;;;;;;;;4.90;99.90;;;;;;5001203;28;19925;-77
2021/01/11 05:50:21;;;;;;;;;;;4.90;99.90;;;;;;5015777;28;19926;-77
2021/01/11 05:52:48;;;;;;;;;;;4.90;99.90;;;;;;5015340;28;19933;-77
2021/01/11 05:55:25;;;;;;;;;;;4.90;99.90;;;;;;5015600;28;19925;-77
2021/01/11 05:57:54;;;;;;;;;;;4.90;99.90;;;;;;5015613;28;19925;-77
2021/01/11 06:00:21;;;;;;;;;;;4.90;99.90;;;;;;5015415;28;20350;-77
2021/01/11 06:02:48;;;;;;;;;;;4.90;99.90;;;;;;5015595;28;19935;-77
2021/01/11 06:05:15;;;;;;;;;;;4.90;99.90;;;;;;5018387;28;19925;-77
2021/01/11 06:07:42;;;;;;;;;;;4.90;99.90;;;;;;5019358;28;19925;-77
2021/01/11 06:10:09;;;;;;;;;;;4.90;99.90;;;;;;5019512;28;19936;-77
2021/01/11 06:12:36;;;;;;;;;;;4.90;99.90;;;;;;5019316;28;19925;-77
2021/01/11 06:15:02;;;;;;;;;;;4.90;99.90;;;;;;5019347;28;20269;-77
2021/01/11 06:17:30;;;;;;;;;;;4.90;99.90;;;;;;5019606;28;19926;-77
2021/01/11 06:19:57;;;;;;;;;;;4.90;99.90;;;;;;5019162;28;19976;-77
2021/01/11 06:22:28;;;;;;;;;;;4.90;99.90;;;;;;5018988;28;19987;-77
2021/01/11 06:24:55;;;;;;;;;;;4.90;99.90;;;;;;5018677;28;19933;-76
2021/01/11 06:27:21;;;;;;;;;;;4.90;99.90;;;;;;5018956;28;20380;-77
2021/01/11 06:29:48;;;;;;;;;;;4.90;99.90;;;;;;5018556;28;19936;-77
2021/01/11 06:32:18;;;;;;;;;;;4.90;99.90;;;;;;5018534;28;20323;-77
2021/01/11 06:34:45;;;;;;;;;;;4.90;99.90;;;;;;5018594;28;19936;-77
2021/01/11 06:37:17;;;;;;;;;;;4.90;99.90;;;;;;5018593;28;19925;-77
2021/01/11 06:39:44;;;;;;;;;;;4.90;99.90;;;;;;5018630;28;19932;-77
2021/01/11 06:42:11;;;;;;;;;;;4.90;99.90;;;;;;5018517;28;19952;-77
2021/01/11 06:44:38;;;;;;;;;;;4.90;99.90;;;;;;5018639;28;19929;-77
2021/01/11 06:47:05;;;;;;;;;;;4.90;99.90;;;;;;5018496;28;19932;-77
2021/01/11 06:49:32;;;;;;;;;;;4.90;99.90;;;;;;5018364;28;19952;-77
2021/01/11 06:52:08;;;;;;;;;;;4.90;99.90;;;;;;5018261;28;20282;-77
2021/01/11 06:54:35;;;;;;;;;;;4.90;99.90;;;;;;5018466;28;20049;-77
2021/01/11 06:57:06;;;;;;;;;;;4.90;99.90;;;;;;5018270;28;19925;-77
2021/01/11 06:59:33;;;;;;;;;;;4.90;99.90;;;;;;5018313;28;19925;-77
2021/01/11 07:01:59;;;;;;;;;;;4.90;99.90;;;;;;5018132;28;19925;-77
2021/01/11 07:04:35;;;;;;;;;;;4.90;99.90;;;;;;5017842;28;19925;-76
2021/01/11 07:07:02;;;;;;;;;;;4.90;99.90;;;;;;5018270;28;19926;-77
2021/01/11 07:09:29;;;;;;;;;;;4.90;99.90;;;;;;5018531;28;19936;-77
2021/01/11 07:12:02;;;;;;;;;;;4.90;99.90;;;;;;5018247;28;19925;-77
2021/01/11 07:14:28;;;;;;;;;;;4.90;99.90;;;;;;5017816;28;19984;-77
2021/01/11 07:16:56;;;;;;;;;;;4.90;99.90;;;;;;5017686;28;19933;-77
2021/01/11 07:19:22;;;;;;;;;;;4.90;99.90;;;;;;5017731;28;19926;-77
2021/01/11 07:21:50;;;;;;;;;;;4.90;99.90;;;;;;5017812;28;19952;-77
2021/01/11 07:24:16;;;;;;;;;;;4.90;99.90;;;;;;5017837;28;19926;-77
2021/01/11 07:26:42;;;;;;;;;;;4.90;99.90;;;;;;5017355;28;19935;-77
2021/01/11 07:29:09;;;;;;;;;;;4.90;99.90;;;;;;5017583;28;19935;-77
2021/01/11 07:31:36;;;;;;;;;;;4.90;99.90;;;;;;5017618;28;19936;-77
2021/01/11 07:34:03;;;;;;;;;;;4.90;99.90;;;;;;5017686;28;19933;-77
2021/01/11 07:36:31;;;;;;;;;;;4.90;99.90;;;;;;5017923;28;19926;-77
2021/01/11 07:39:12;;;;;;;;;;;4.90;99.90;;;;;;5017698;28;20243;-77
2021/01/11 07:41:39;;;;;;;;;;;4.90;99.90;;;;;;5016494;28;19939;-77
2021/01/11 07:44:16;;;;;;;;;;;4.90;99.90;;;;;;5017430;28;19925;-77
2021/01/11 07:46:42;;;;;;;;;;;4.90;99.90;;;;;;5017691;28;19925;-77
2021/01/11 07:49:12;;;;;;;;;;;4.90;99.90;;;;;;5017382;28;20362;-77
2021/01/11 07:51:39;;;;;;;;;;;4.90;99.90;;;;;;5017505;28;19926;-77
2021/01/11 07:54:06;;;;;;;;;;;4.90;99.90;;;;;;5017124;28;19925;-77
2021/01/11 07:56:33;;;;;;;;;;;4.90;99.90;;;;;;5017049;28;19925;-77
2021/01/11 07:59:00;;;;;;;;;;;4.90;99.90;;;;;;5017299;28;19935;-77
2021/01/11 08:01:26;;;;;;;;;;;4.90;99.90;;;;;;5001131;28;19933;-77
2021/01/11 08:03:54;;;;;;;;;;;4.90;99.90;;;;;;4997372;28;19925;-77
2021/01/11 08:06:20;;;;;;;;;;;4.90;99.90;;;;;;4997616;28;19926;-77
2021/01/11 08:08:47;;;;;;;;;;;4.90;99.90;;;;;;4997243;28;20333;-77
2021/01/11 08:11:13;;;;;;;;;;;4.90;99.90;;;;;;4997401;28;20021;-77
2021/01/11 08:13:39;;;;;;;;;;;4.90;99.90;;;;;;4997439;28;19926;-77
2021/01/11 08:16:10;;;;;;;;;;;4.90;99.90;;;;;;4997458;28;19980;-77
2021/01/11 08:18:37;;;;;;;;;;;4.90;99.90;;;;;;4997089;28;19930;-77
2021/01/11 08:21:05;;;;;;;;;;;5.00;99.90;;;;;;4997143;28;19926;-77
2021/01/11 08:23:31;;;;;;;;;;;5.00;99.90;;;;;;4996940;28;20390;-77
2021/01/11 08:25:57;;;;;;;;;;;5.00;99.90;;;;;;4996604;28;19929;-77
2021/01/11 08:28:24;;;;;;;;;;;5.00;99.90;;;;;;4996371;28;19991;-77
2021/01/11 08:30:50;;;;;;;;;;;5.00;99.90;;;;;;4996719;28;19930;-77
2021/01/11 08:33:18;;;;;;;;;;;5.00;99.90;;;;;;4997247;28;19929;-77
2021/01/11 08:35:44;;;;;;;;;;;5.00;99.90;;;;;;4997010;28;19925;-77
2021/01/11 08:38:12;;;;;;;;;;;5.00;99.90;;;;;;4996555;28;19925;-77
2021/01/11 08:40:39;;;;;;;;;;;5.00;99.90;;;;;;4996707;28;20240;-77
2021/01/11 08:43:08;;;;;;;;;;;5.00;99.90;;;;;;4996754;28;19926;-77
2021/01/11 08:45:35;;;;;;;;;;;5.00;99.90;;;;;;4996947;28;19936;-77
2021/01/11 08:48:02;;;;;;;;;;;5.00;99.90;;;;;;4996614;28;19925;-77
2021/01/11 08:50:29;;;;;;;;;;;5.10;99.90;;;;;;4996369;28;20011;-77
2021/01/11 08:52:56;;;;;;;;;;;5.00;99.90;;;;;;4996620;28;19926;-76
2021/01/11 08:55:22;;;;;;;;;;;5.00;99.90;;;;;;4996525;28;20240;-77
2021/01/11 08:57:55;;;;;;;;;;;5.00;99.90;;;;;;4996641;28;20326;-76
2021/01/11 09:00:22;;;;;;;;;;;5.10;99.90;;;;;;4996213;28;19925;-76
2021/01/11 09:02:49;;;;;;;;;;;5.10;99.90;;;;;;4996401;28;20317;-77
2021/01/11 09:05:16;;;;;;;;;;;5.10;99.90;;;;;;4996573;28;19925;-77
2021/01/11 09:07:44;;;;;;;;;;;5.10;99.90;;;;;;4996504;28;19926;-77
2021/01/11 09:10:20;;;;;;;;;;;5.10;99.90;;;;;;4996195;28;19925;-77
2021/01/11 09:12:47;;;;;;;;;;;5.10;99.90;;;;;;4996198;28;19927;-77
2021/01/11 09:15:13;;;;;;;;;;;5.10;99.90;;;;;;4996607;28;19933;-77
2021/01/11 09:17:40;;;;;;;;;;;5.10;99.90;;;;;;4996625;28;19926;-77
2021/01/11 09:20:07;;;;;;;;;;;5.10;99.90;;;;;;4996244;28;19936;-77
2021/01/11 09:22:34;;;;;;;;;;;5.10;99.90;;;;;;4996115;28;19929;-77
2021/01/11 09:25:02;;;;;;;;;;;5.10;99.90;;;;;;4996202;28;19925;-77
2021/01/11 09:27:28;;;;;;;;;;;5.10;99.90;;;;;;4996415;28;19926;-77
2021/01/11 09:29:55;;;;;;;;;;;5.10;99.90;;;;;;4999544;28;19933;-77
2021/01/11 09:32:21;;;;;;;;;;;5.10;99.90;;;;;;5016144;28;19932;-77
2021/01/11 09:34:47;;;;;;;;;;;5.10;99.90;;;;;;5015601;28;19929;-77
2021/01/11 09:37:14;;;;;;;;;;;5.20;99.90;;;;;;5015636;28;19964;-77
2021/01/11 09:39:40;;;;;;;;;;;5.20;99.90;;;;;;5015417;28;19936;-77
2021/01/11 09:42:08;;;;;;;;;;;5.20;99.90;;;;;;5015583;28;20358;-77
2021/01/11 09:44:34;;;;;;;;;;;5.20;99.90;;;;;;5015392;28;19983;-77
2021/01/11 09:47:01;;;;;;;;;;;5.20;99.90;;;;;;5015778;28;19925;-77
2021/01/11 09:49:27;;;;;;;;;;;5.20;99.90;;;;;;5015815;28;19929;-77
2021/01/11 09:51:54;;;;;;;;;;;5.20;99.90;;;;;;5015726;28;19925;-77
2021/01/11 09:54:20;;;;;;;;;;;5.20;99.90;;;;;;5015512;28;19925;-77
2021/01/11 09:56:48;;;;;;;;;;;5.20;99.90;;;;;;5016068;28;19925;-77
2021/01/11 09:59:17;;;;;;;;;;;5.20;99.90;;;;;;5016403;28;20330;-77
2021/01/11 10:01:44;;;;;;;;;;;5.30;99.90;;;;;;5015863;28;20278;-77
2021/01/11 10:04:12;;;;;;;;;;;5.30;99.90;;;;;;5016025;28;19926;-77
2021/01/11 10:06:41;;;;;;;;;;;5.30;99.90;;;;;;5015936;28;19937;-77
2021/01/11 10:09:09;;;;;;;;;;;5.30;99.90;;;;;;5015981;28;19972;-77
2021/01/11 10:11:35;;;;;;;;;;;5.30;99.90;;;;;;5015930;28;19925;-77
2021/01/11 10:14:02;;;;;;;;;;;5.30;99.90;;;;;;5015893;28;19925;-77
2021/01/11 10:16:29;;;;;;;;;;;5.40;99.90;;;;;;5016165;28;19935;-77
2021/01/11 10:18:55;;;;;;;;;;;5.40;99.90;;;;;;5015012;28;19925;-77
2021/01/11 10:21:22;;;;;;;;;;;5.40;99.90;;;;;;5015479;28;19926;-77
2021/01/11 10:23:48;;;;;;;;;;;5.40;99.90;;;;;;5014302;28;20382;-77
2021/01/11 10:26:17;;;;;;;;;;;5.40;99.90;;;;;;5014859;28;19926;-77
2021/01/11 10:28:44;;;;;;;;;;;5.40;99.90;;;;;;5015052;28;20343;-77
2021/01/11 10:31:10;;;;;;;;;;;5.40;99.90;;;;;;5014891;28;19933;-77
2021/01/11 10:33:37;;;;;;;;;;;5.40;99.90;;;;;;5015257;28;19940;-77
2021/01/11 10:36:04;;;;;;;;;;;5.40;99.90;;;;;;5015166;28;19925;-77
2021/01/11 10:38:30;;;;;;;;;;;5.50;99.90;;;;;;5015223;28;19932;-77
2021/01/11 10:40:57;;;;;;;;;;;5.50;99.90;;;;;;5014918;28;19929;-77
2021/01/11 10:43:25;;;;;;;;;;;5.50;99.90;;;;;;5018989;28;20350;-76
2021/01/11 10:45:53;;;;;;;;;;;5.50;99.90;;;;;;5014545;28;20346;-76
2021/01/11 10:48:20;;;;;;;;;;;5.50;99.90;;;;;;5014322;28;20319;-76
2021/01/11 10:50:48;;;;;;;;;;;5.50;99.90;;;;;;5016426;28;19983;-76
2021/01/11 10:53:16;;;;;;;;;;;5.50;99.90;;;;;;5018317;28;19933;-76
2021/01/11 10:55:44;;;;;;;;;;;5.50;99.90;;;;;;5018015;28;19988;-76
2021/01/11 10:58:12;;;;;;;;;;;5.60;99.90;;;;;;5017829;28;19926;-76
2021/01/11 11:03:44;;;;;;;;;;;5.60;99.90;;;;;;5277244;22;19917;-79
2021/01/11 11:09:00;;;;;;;;;;;7.10;99.90;;;;;;5083750;22;19930;-79
2021/01/11 13:33:31;;;;;;;;;;;6.20;99.90;;;;;;6146337;22;19920;31
2021/01/11 13:35:59;;;;;;;;;;;6.20;99.90;;;;;;5140540;23;19926;-79
2021/01/11 13:41:01;;;;;;;;;;;6.40;99.90;;;;;;5028772;22;19933;-80
2021/01/11 13:43:27;;;;;;;;;;;6.40;99.90;;;;;;4983929;28;20021;-77
2021/01/11 13:45:59;;;;;;;;;;;6.40;99.90;;;;;;4984265;28;19934;-78
2021/01/11 14:35:36;;;;;;;;;;;6.40;99.90;;;;;;5000811;28;19957;-83
2021/01/11 14:38:21;;;;;;;;;;;6.80;99.90;;;;;;5002715;28;19910;-79
2021/01/11 14:41:24;;;;;;;;;;;6.40;99.90;;;;;;4957393;28;19974;-81
2021/01/11 14:43:58;;;;;;;;;;;8.80;99.90;;;;;;5049099;23;19910;-79
2021/01/11 15:05:34;;;;;;;;;;;7.00;99.90;;;;;;5816630;23;19910;-76
2021/01/11 16:33:27;;;;;;;;;;;6.70;99.90;;;;;;5084428;28;19924;-81
2021/01/11 16:50:28;;;;;;;;;;;6.70;99.90;;;;;;5368574;22;19908;-79
2021/01/11 16:52:55;;;;;;;;;;;6.00;99.90;;;;;;5070774;28;20038;-79
2021/01/11 16:55:21;;;;;;;;;;;6.70;99.90;;;;;;5071230;28;19932;-79
2021/01/11 17:57:53;;;;;;;;;;;6.90;99.90;;;;;;5101385;22;19943;-77
2021/01/11 18:00:22;;;;;;;;;;;6.90;99.90;;;;;;5058311;28;20261;-77
2021/01/11 18:02:52;;;;;;;;;;;6.90;99.90;;;;;;5059061;28;19929;-77
2021/01/11 18:05:20;;;;;;;;;;;6.90;99.90;;;;;;5059063;28;20310;-77
2021/01/11 18:07:47;;;;;;;;;;;6.90;99.90;;;;;;5063818;28;20011;-78
2021/01/11 18:10:15;;;;;;;;;;;6.90;99.90;;;;;;5065800;28;20359;-78
2021/01/11 18:12:43;;;;;;;;;;;7.00;99.90;;;;;;5061762;28;20070;-78
2021/01/11 18:15:23;;;;;;;;;;;6.90;99.90;;;;;;5065328;28;19995;-78
2021/01/11 18:17:51;;;;;;;;;;;6.90;99.90;;;;;;5065463;28;19981;-78
2021/01/11 18:20:19;;;;;;;;;;;6.90;99.90;;;;;;5064914;28;20019;-77
2021/01/11 18:22:46;;;;;;;;;;;6.90;99.90;;;;;;5077286;28;19924;-78
2021/01/11 18:25:14;;;;;;;;;;;6.90;99.90;;;;;;5080707;28;19935;-78
2021/01/11 18:27:42;;;;;;;;;;;6.90;99.90;;;;;;5079446;28;19932;-77
2021/01/11 18:30:15;;;;;;;;;;;6.90;99.90;;;;;;5073433;28;19940;-77
2021/01/11 18:32:44;;;;;;;;;;;6.90;99.90;;;;;;5058512;28;20428;-77
2021/01/11 18:35:11;;;;;;;;;;;6.90;99.90;;;;;;5058363;28;19986;-77
2021/01/11 18:37:39;;;;;;;;;;;6.90;99.90;;;;;;5064488;28;19928;-78
2021/01/11 18:40:07;;;;;;;;;;;6.90;99.90;;;;;;5058921;28;19929;-77
2021/01/11 18:42:35;;;;;;;;;;;6.90;99.90;;;;;;5069096;28;19943;-79
2021/01/11 18:45:06;;;;;;;;;;;6.90;99.90;;;;;;5078493;28;20307;-77
2021/01/11 18:47:35;;;;;;;;;;;6.90;99.90;;;;;;5078358;28;20027;-79
2021/01/11 18:50:05;;;;;;;;;;;6.90;99.90;;;;;;5057956;28;19925;-77
2021/01/11 18:52:31;;;;;;;;;;;7.00;99.90;;;;;;5058478;28;19982;-79
2021/01/11 18:54:57;;;;;;;;;;;6.90;99.90;;;;;;5058232;28;20019;-79
2021/01/11 18:57:24;;;;;;;;;;;7.00;99.90;;;;;;5057533;28;20238;-79
2021/01/11 18:59:50;;;;;;;;;;;7.00;99.90;;;;;;5057071;28;19944;-77
2021/01/11 19:02:16;;;;;;;;;;;7.00;99.90;;;;;;5058361;28;19925;-78
2021/01/11 19:04:44;;;;;;;;;;;7.00;99.90;;;;;;5057561;28;19925;-78
2021/01/11 19:07:13;;;;;;;;;;;7.10;99.90;;;;;;5051659;28;19936;-77
2021/01/11 19:09:41;;;;;;;;;;;7.20;99.90;;;;;;5056509;28;19936;-78
2021/01/11 19:12:08;;;;;;;;;;;7.30;99.90;;;;;;5057111;28;19924;-77
2021/01/11 19:14:35;;;;;;;;;;;7.40;99.90;;;;;;5063978;28;19924;-77
2021/01/11 19:17:03;;;;;;;;;;;7.40;99.90;;;;;;5077061;28;20042;-77
2021/01/11 19:19:31;;;;;;;;;;;7.60;99.90;;;;;;5061455;28;20364;-77
2021/01/11 19:22:00;;;;;;;;;;;7.70;99.90;;;;;;5057523;28;19947;-77
2021/01/11 19:24:27;;;;;;;;;;;7.70;99.90;;;;;;5057081;28;19940;-77
2021/01/11 19:26:54;;;;;;;;;;;7.70;99.90;;;;;;5057249;28;19971;-77
2021/01/11 19:29:29;;;;;;;;;;;7.70;99.90;;;;;;5061337;28;19928;-78
2021/01/11 19:50:01;;;;;;;;;;;7.70;99.90;;;;;;5555884;22;19988;-83
2021/01/11 20:06:54;;;;;;;;;;;8.00;99.90;;;;;;5543004;22;19929;-79
2021/01/11 20:09:55;;;;;;;;;;;8.00;99.90;;;;;;5075999;28;19977;-84
2021/01/11 20:12:35;;;;;;;;;;;9.30;99.90;;;;;;5080103;28;19932;-86
2021/01/11 20:15:19;;;;;;;;;;;7.90;99.90;;;;;;5077087;28;19925;-83
2021/01/11 20:17:49;;;;;;;;;;;8.00;99.90;;;;;;5056174;28;19929;-84
2021/01/11 20:20:53;;;;;;;;;;;8.00;99.90;;;;;;5074109;28;19952;-86
2021/01/11 20:23:40;;;;;;;;;;;8.00;99.90;;;;;;5075989;28;19988;-85
2021/01/11 20:26:09;;;;;;;;;;;8.00;99.90;;;;;;5056455;28;19933;-81
2021/01/11 20:28:37;;;;;;;;;;;8.00;99.90;;;;;;5056125;28;19924;-80
2021/01/11 20:31:04;;;;;;;;;;;8.00;99.90;;;;;;5055975;28;20361;-78
2021/01/11 20:33:30;;;;;;;;;;;8.00;99.90;;;;;;5055655;28;19935;-80
2021/01/11 20:35:56;;;;;;;;;;;8.00;99.90;;;;;;5056212;28;19935;-82
2021/01/11 20:38:23;;;;;;;;;;;8.00;99.90;;;;;;5057590;28;19925;-83
2021/01/11 20:40:49;;;;;;;;;;;8.00;99.90;;;;;;5058258;28;19924;-80
2021/01/11 20:43:16;;;;;;;;;;;8.00;99.90;;;;;;5056192;28;20346;-82
2021/01/11 20:45:43;;;;;;;;;;;7.80;99.90;;;;;;5056374;28;19947;-81
2021/01/11 20:48:11;;;;;;;;;;;7.90;99.90;;;;;;5065167;28;19934;-82
2021/01/11 20:50:43;;;;;;;;;;;7.80;99.90;;;;;;5080209;28;19940;-83
2021/01/11 20:53:28;;;;;;;;;;;7.80;99.90;;;;;;5084761;28;19925;-83
2021/01/11 21:54:22;;;;;;;;;;;7.50;99.90;;;;;;5665875;22;19913;-79
2021/01/11 22:02:33;;;;;;;;;;;7.30;99.90;;;;;;5418736;22;19909;-87
2021/01/11 22:11:13;;;;;;;;;;;7.40;99.90;;;;;;5439322;22;19920;-82
2021/01/11 22:38:00;;;;;;;;;;;7.30;99.90;;;;;;5098331;28;19947;-82
2021/01/11 23:02:01;;;;;;;;;;;7.30;99.90;;;;;;5101011;28;19928;-82
2021/01/11 23:14:03;;;;;;;;;;;7.30;99.90;;;;;;5102195;28;19916;-79
2021/01/11 23:16:30;;;;;;;;;;;7.50;99.90;;;;;;5102091;28;20000;-80
2021/01/11 23:28:06;;;;;;;;;;;6.30;99.90;;;;;;5100514;28;19939;-80
2021/01/11 23:30:33;;;;;;;;;;;7.20;99.90;;;;;;5100204;28;19921;-78
2021/01/11 23:32:59;;;;;;;;;;;7.20;99.90;;;;;;5100111;28;19931;-80
2021/01/11 23:39:18;;;;;;;;;;;7.20;99.90;;;;;;5101793;28;20322;-80
2021/01/11 23:47:52;;;;;;;;;;;7.30;99.90;;;;;;5099896;28;19923;-79
2021/01/11 23:50:22;;;;;;;;;;;7.50;99.90;;;;;;5099892;28;19909;-79
2021/01/11 23:52:49;;;;;;;;;;;7.20;99.90;;;;;;5099917;28;20356;-80
2021/01/11 23:55:40;;;;;;;;;;;7.20;99.90;;;;;;5100985;28;19958;-81
2021/01/11 23:58:07;;;;;;;;;;;7.10;99.90;;;;;;5097874;28;19909;-80
